Date,TemperatureHighF,TemperatureAvgF,TemperatureLowF,DewpointHighF,DewpointAvgF,DewpointLowF,HumidityHigh,HumidityAvg,HumidityLow,PressureMaxIn,PressureMinIn,WindSpeedMaxMPH,WindSpeedAvgMPH,GustSpeedMaxMPH,PrecipitationSumIn
2012-1-1,34,23,14,20,16,9,88,77,51,0.00,40.00,9,3,13,0.00
2012-1-2,47,33,19,26,21,16,89,65,42,0.00,40.00,15,8,22,0.00
2012-1-3,47,37,26,25,22,19,82,57,35,0.00,40.00,15,4,22,0.00
2012-1-4,51,39,26,24,21,18,83,51,28,0.00,40.00,21,10,32,0.00
2012-1-5,50,41,29,26,21,11,65,46,35,0.00,40.00,18,10,30,0.00
2012-1-6,35,27,16,16,13,9,83,57,35,0.00,40.00,10,4,15,0.00
2012-1-7,30,20,7,17,13,3,87,74,55,0.00,40.00,7,3,15,0.00
2012-1-8,34,28,17,25,21,13,90,75,67,0.00,40.00,5,2,8,0.00
2012-1-9,43,30,14,27,22,11,94,74,49,0.00,40.00,15,5,23,0.00
2012-1-10,42,33,16,32,21,3,88,62,33,0.00,40.00,20,11,30,0.00
2012-1-11,19,9,-6,4,-1,-13,80,64,50,0.00,40.00,11,4,18,0.00
2012-1-12,22,10,-2,8,2,-7,80,72,54,0.00,40.00,6,3,11,0.00
2012-1-13,36,17,4,10,6,-2,83,64,34,0.00,40.00,4,2,7,0.00
2012-1-14,49,37,17,18,14,9,72,41,20,0.00,40.00,18,10,28,0.00
2012-1-15,35,23,12,23,10,5,82,60,41,0.00,40.00,13,6,25,0.00
2012-1-16,25,13,2,10,3,-3,81,65,36,0.00,40.00,15,5,24,0.00
2012-1-17,23,18,12,13,6,-1,67,58,48,0.00,40.00,26,18,38,0.00
2012-1-18,23,20,18,19,17,13,93,87,63,0.00,40.00,14,4,21,0.00
2012-1-19,39,31,20,32,27,19,94,84,74,0.00,40.00,11,6,17,0.00
2012-1-20,38,33,26,32,29,25,100,85,66,0.00,40.00,14,5,20,0.00
2012-1-21,41,37,32,35,28,14,94,70,47,0.00,40.00,23,10,35,0.00
2012-1-22,32,28,23,20,14,8,80,54,35,0.00,40.00,16,7,26,0.00
2012-1-23,35,27,12,28,19,8,92,73,53,0.00,40.00,17,8,26,0.00
2012-1-24,35,19,3,17,7,-2,84,63,35,0.00,40.00,28,8,40,0.00
2012-1-25,45,37,32,31,25,17,77,61,45,0.00,40.00,26,11,40,0.00
2012-1-26,44,35,26,28,22,15,68,60,35,0.00,40.00,19,12,29,0.00
2012-1-27,30,24,15,16,6,1,68,45,28,0.00,40.00,13,6,25,0.00
2012-1-28,33,22,14,24,11,4,92,64,32,0.00,40.00,8,3,12,0.00
2012-1-29,50,42,26,29,25,20,92,52,33,0.00,40.00,22,14,36,0.00
2012-1-30,43,38,31,30,24,19,71,57,41,0.00,40.00,16,9,27,0.00
2012-1-31,40,33,26,25,20,17,83,62,40,0.00,40.00,17,8,23,0.00
2012-2-1,41,32,23,25,19,15,83,61,38,0.00,40.00,17,8,26,0.00
2012-2-2,35,30,24,28,26,22,95,85,73,0.00,40.00,10,3,17,0.00
2012-2-3,37,25,15,22,18,12,94,77,49,0.00,40.00,4,2,7,0.00
2012-2-4,34,20,9,18,12,5,87,75,48,0.00,40.00,5,2,9,0.00
2012-2-5,34,17,6,16,10,1,87,75,43,0.00,40.00,5,2,8,0.00
2012-2-6,31,26,17,24,19,13,86,76,66,0.00,40.00,11,7,17,0.00
2012-2-7,36,24,12,19,16,9,87,73,43,0.00,40.00,8,4,13,0.00
2012-2-8,31,18,6,20,12,2,87,76,55,0.00,40.00,6,2,10,0.00
2012-2-9,42,31,21,26,23,19,90,73,51,0.00,40.00,6,3,10,0.00
2012-2-10,29,25,20,28,23,16,95,90,85,0.00,40.00,11,4,18,0.00
2012-2-11,31,22,18,22,17,14,92,83,69,0.00,40.00,8,2,11,0.00
2012-2-12,33,26,18,28,23,16,96,89,77,0.00,40.00,4,2,6,0.00
2012-2-13,33,28,22,27,25,22,98,89,67,0.00,40.00,4,2,7,0.00
2012-2-14,33,26,17,26,18,13,95,73,45,0.00,40.00,8,4,16,0.00
2012-2-15,32,22,14,20,14,10,88,74,56,0.00,40.00,7,3,11,0.00
2012-2-16,29,20,8,19,12,4,88,74,58,0.00,40.00,4,2,11,0.00
2012-2-17,37,28,22,28,23,19,96,83,62,0.00,40.00,6,3,10,0.00
2012-2-18,34,28,20,26,21,14,92,75,58,0.00,40.00,12,4,23,0.00
2012-2-19,34,25,19,19,15,10,78,65,38,0.00,40.00,15,6,22,0.00
2012-2-20,32,26,19,23,16,12,94,67,47,0.00,40.00,15,7,21,0.00
2012-2-21,41,32,23,32,28,22,95,85,70,0.00,40.00,9,4,16,0.00
2012-2-22,46,38,26,36,28,13,96,71,41,0.00,40.00,20,11,42,0.00
2012-2-23,31,26,20,22,17,11,92,69,48,0.00,40.00,13,5,23,0.00
2012-2-24,40,30,16,24,19,12,92,64,48,0.00,40.00,24,9,34,0.00
2012-2-25,36,31,23,30,21,11,98,66,44,0.00,40.00,24,10,36,0.00
2012-2-26,29,26,23,15,11,3,70,54,32,0.00,40.00,13,5,24,0.00
2012-2-27,31,22,12,17,12,9,88,69,42,0.00,40.00,7,2,12,0.00
2012-2-28,31,17,7,15,9,3,87,73,45,0.00,40.00,5,2,9,0.00
2012-2-29,38,27,16,24,14,5,89,61,39,0.00,40.00,22,10,38,0.00
2012-3-1,28,22,15,20,13,6,92,69,57,0.00,40.00,14,7,24,0.00
2012-3-2,32,25,14,19,12,6,92,61,34,0.00,40.00,7,4,18,0.00
2012-3-3,48,34,26,28,24,18,85,66,40,0.00,40.00,22,6,46,0.00
2012-3-4,52,44,29,26,24,18,79,46,28,0.00,40.00,18,9,32,0.00
2012-3-5,53,42,36,30,22,20,78,45,31,0.00,40.00,22,16,35,0.00
2012-3-6,36,25,10,32,16,5,100,71,45,0.00,40.00,18,8,31,0.00
2012-3-7,35,23,8,19,10,4,85,60,36,0.00,40.00,7,4,14,0.00
2012-3-8,36,27,16,26,19,12,88,73,53,0.00,40.00,6,3,9,0.00
2012-3-9,63,48,27,24,18,13,88,35,14,0.00,40.00,22,12,37,0.00
2012-3-10,61,46,31,25,17,-100,78,37,17,0.00,40.00,16,8,27,0.00
2012-3-11,55,38,25,29,24,18,91,63,24,0.00,40.00,24,10,36,0.00
2012-3-12,49,35,18,30,24,17,96,68,34,0.00,40.00,21,10,32,0.00
2012-3-13,54,41,28,28,22,14,96,48,30,0.00,40.00,32,14,48,0.00
2012-3-14,40,32,25,29,22,16,89,69,55,0.00,40.00,6,3,13,0.00
2012-3-15,58,44,29,33,30,27,93,61,34,0.00,40.00,21,10,33,0.00
2012-3-16,49,42,28,38,32,22,99,72,35,0.00,40.00,21,10,33,0.00
2012-3-17,39,35,28,38,32,25,99,90,76,0.00,40.00,11,5,20,0.00
2012-3-18,34,31,29,32,30,27,100,96,89,0.00,40.00,11,5,20,0.00
2012-3-19,37,29,17,28,20,7,99,70,43,0.00,40.00,14,8,21,0.00
2012-3-20,37,29,17,28,19,7,72,67,61,0.00,40.00,30,20,44,0.00
2012-3-21,57,37,26,57,30,25,97,77,55,0.00,40.00,17,-4,27,0.00
2012-3-22,62,47,33,33,30,24,78,53,24,0.00,40.00,19,-44,29,0.00
2012-3-23,43,35,28,38,32,26,100,89,74,0.00,40.00,11,4,19,0.00
2012-3-24,53,39,28,34,32,27,99,76,43,0.00,40.00,9,4,13,0.00
2012-3-25,69,44,25,36,29,24,96,65,20,0.00,40.00,14,4,21,0.00
2012-3-26,60,45,35,37,31,26,82,60,30,0.00,40.00,15,7,25,0.00
2012-3-27,56,42,30,29,24,19,85,55,24,0.00,40.00,17,9,27,0.00
2012-3-28,56,43,30,37,30,26,96,63,34,0.00,40.00,25,10,39,0.00
2012-3-29,55,41,27,29,23,20,96,53,27,0.00,40.00,23,12,33,0.00
2012-3-30,58,49,40,37,32,26,84,54,37,0.00,40.00,35,23,52,0.00
2012-3-31,68,49,32,42,33,27,100,64,22,0.00,40.00,24,8,38,0.00
2012-4-1,51,38,29,42,28,12,98,68,31,0.00,40.00,17,9,32,0.00
2012-4-2,45,33,20,21,17,14,82,55,28,0.00,40.00,7,4,16,0.00
2012-4-3,63,40,19,26,18,12,87,51,16,0.00,40.00,15,8,25,0.00
2012-4-4,62,46,31,26,21,15,62,39,22,0.00,40.00,22,10,33,0.00
2012-4-5,44,34,27,25,16,11,73,50,27,0.00,40.00,9,6,17,0.00
2012-4-6,36,32,28,28,26,23,96,78,59,0.00,40.00,17,12,28,0.00
2012-4-7,40,31,16,27,19,12,96,65,37,0.00,40.00,13,5,20,0.00
2012-4-8,52,35,17,24,21,13,90,61,30,0.00,40.00,5,3,12,0.00
2012-4-9,58,40,22,30,25,20,90,60,29,0.00,40.00,7,3,12,0.00
2012-4-10,72,48,26,32,28,21,92,54,15,0.00,40.00,11,5,19,0.00
2012-4-11,75,54,35,34,27,15,80,44,11,0.00,40.00,21,9,36,0.00
2012-4-12,58,46,35,44,34,21,99,69,30,0.00,40.00,13,6,28,0.00
2012-4-13,54,39,26,31,24,19,93,60,27,0.00,40.00,10,4,17,0.00
2012-4-14,55,39,22,27,16,-100,89,51,10,0.00,40.00,17,6,31,0.00
2012-4-15,48,38,33,35,29,22,100,70,39,0.00,40.00,16,5,27,0.00
2012-4-16,55,42,29,35,27,22,93,61,32,0.00,40.00,15,7,22,0.00
2012-4-17,54,43,32,35,29,20,93,63,27,0.00,40.00,12,4,23,0.00
2012-4-18,49,44,38,36,31,24,84,61,44,0.00,40.00,13,6,23,0.00
2012-4-19,56,42,29,34,27,12,98,63,17,0.00,40.00,10,5,20,0.00
2012-4-20,66,52,38,39,31,23,74,47,20,0.00,40.00,18,10,37,0.00
2012-4-21,66,52,42,40,37,34,87,61,34,0.00,40.00,8,5,15,0.00
2012-4-22,78,54,31,37,31,23,85,51,13,0.00,40.00,12,4,22,0.00
2012-4-23,80,61,41,44,36,28,74,45,15,0.00,40.00,16,7,25,0.00
2012-4-24,74,62,52,43,38,29,63,43,21,0.00,40.00,18,9,29,0.00
2012-4-25,72,55,37,40,37,30,92,56,21,0.00,40.00,9,4,15,0.00
2012-4-26,67,54,43,49,45,39,91,73,40,0.00,40.00,19,9,32,0.00
2012-4-27,43,39,35,40,27,19,93,62,42,0.00,40.00,15,10,27,0.00
2012-4-28,48,40,35,28,22,-100,68,49,38,0.00,40.00,14,8,27,0.00
2012-4-29,52,41,30,31,28,26,89,63,39,0.00,40.00,6,3,11,0.00
2012-4-30,61,46,35,37,32,29,78,59,32,0.00,40.00,19,10,32,0.00
2012-5-1,49,43,36,34,24,16,92,52,26,0.00,40.00,18,8,29,0.00
2012-5-2,44,34,23,35,25,19,94,71,43,0.00,40.00,11,5,18,0.00
2012-5-3,54,41,24,39,30,21,88,66,46,0.00,40.00,17,5,27,0.00
2012-5-4,58,44,34,38,34,29,97,73,34,0.00,40.00,16,6,25,0.00
2012-5-5,46,38,32,35,28,-100,96,72,34,0.00,40.00,13,7,25,0.00
2012-5-6,51,40,29,28,24,22,80,56,32,0.00,40.00,11,5,18,0.00
2012-5-7,62,44,25,30,25,22,90,54,24,0.00,40.00,9,4,16,0.00
2012-5-8,71,51,30,37,29,26,88,50,19,0.00,40.00,9,4,16,0.00
2012-5-9,77,58,41,39,33,26,73,44,16,0.00,40.00,20,9,32,0.00
2012-5-10,53,45,38,34,14,3,50,31,14,0.00,40.00,15,10,28,0.00
2012-5-11,57,40,18,19,14,10,77,38,19,0.00,40.00,7,4,12,0.00
2012-5-12,66,44,26,23,18,-100,77,43,16,0.00,40.00,7,3,12,0.00
2012-5-13,74,53,27,27,23,18,80,39,12,0.00,40.00,7,3,13,0.00
2012-5-14,78,56,34,29,25,14,74,37,9,0.00,40.00,8,3,13,0.00
2012-5-15,83,64,33,37,32,25,82,36,13,0.00,40.00,11,4,17,0.00
2012-5-16,79,60,40,40,35,22,80,44,12,0.00,40.00,15,5,24,0.00
2012-5-17,64,54,46,44,34,27,86,49,27,0.00,40.00,14,5,22,0.00
2012-5-18,59,50,39,43,28,12,92,50,16,0.00,40.00,16,8,27,0.00
2012-5-19,60,45,26,27,22,-100,80,46,24,0.00,40.00,9,4,16,0.00
2012-5-20,69,52,28,40,29,23,80,47,21,0.00,40.00,9,4,16,0.00
2012-5-21,73,58,44,52,42,37,93,60,29,0.00,40.00,15,6,26,0.00
2012-5-22,57,50,43,52,40,27,96,71,34,0.00,40.00,19,7,33,0.00
2012-5-23,51,44,37,36,31,25,92,63,36,0.00,40.00,15,7,25,0.00
2012-5-24,52,43,37,36,33,25,91,70,35,0.00,40.00,16,5,26,0.00
2012-5-25,43,40,38,33,30,27,77,68,60,0.00,40.00,16,12,26,0.00
2012-5-26,41,38,34,34,32,30,96,79,66,0.00,40.00,15,11,24,0.00
2012-5-27,44,37,32,37,34,32,100,90,69,0.00,40.00,14,6,20,0.00
2012-5-28,57,45,37,43,38,34,98,78,46,0.00,40.00,8,4,14,0.00
2012-5-29,60,50,37,47,39,34,94,70,47,0.00,40.00,15,7,22,0.00
2012-5-30,56,50,40,39,33,28,88,53,36,0.00,40.00,10,5,18,0.00
2012-5-31,63,50,35,50,41,34,96,75,42,0.00,40.00,11,5,20,0.00
2012-6-1,67,57,50,51,49,46,98,77,49,0.00,40.00,7,4,13,0.00
2012-6-2,66,52,44,51,44,-100,97,80,52,0.00,40.00,24,5,38,0.00
2012-6-3,66,52,37,47,41,36,98,70,40,0.00,40.00,10,4,17,0.00
2012-6-4,78,60,40,51,46,39,98,64,33,0.00,40.00,16,7,24,0.00
2012-6-5,67,56,42,50,46,41,97,70,44,0.00,40.00,20,10,30,0.00
2012-6-6,56,46,39,41,33,28,97,64,34,0.00,40.00,18,10,28,0.00
2012-6-7,70,51,30,37,30,21,91,53,16,0.00,40.00,11,5,17,0.00
2012-6-8,63,52,43,43,37,22,89,59,25,0.00,40.00,20,6,32,0.00
2012-6-9,54,45,36,40,32,23,96,64,33,0.00,40.00,12,7,22,0.00
2012-6-10,48,45,41,40,35,28,81,70,51,0.00,40.00,10,6,19,0.00
2012-6-11,64,52,40,40,39,37,95,64,36,0.00,40.00,7,4,13,0.00
2012-6-12,69,54,37,50,40,34,94,65,29,0.00,40.00,11,4,18,0.00
2012-6-13,65,56,45,50,39,24,98,60,21,0.00,40.00,14,8,25,0.00
2012-6-14,68,54,36,42,35,26,87,52,28,0.00,40.00,7,4,14,0.00
2012-6-15,68,57,39,42,34,26,93,47,22,0.00,40.00,15,7,28,0.00
2012-6-16,73,53,35,39,32,-100,86,52,20,0.00,40.00,8,4,13,0.00
2012-6-17,75,64,54,46,36,27,64,38,17,0.00,40.00,21,10,35,0.00
2012-6-18,64,54,44,40,33,27,74,47,24,0.00,40.00,21,8,32,0.00
2012-6-19,56,49,39,38,34,31,87,59,38,0.00,40.00,16,7,25,0.00
2012-6-20,66,58,42,38,36,34,85,45,33,0.00,40.00,7,4,13,0.00
2012-6-21,79,62,37,42,37,31,95,48,18,0.00,40.00,9,5,14,0.00
2012-6-22,79,63,46,51,45,41,87,55,30,0.00,40.00,12,6,20,0.00
2012-6-23,87,67,47,54,45,26,93,55,12,0.00,40.00,16,7,27,0.00
2012-6-24,91,70,45,55,47,35,95,53,15,0.00,40.00,15,7,29,0.00
2012-6-25,90,71,49,58,47,26,96,52,11,0.00,40.00,19,8,35,0.00
2012-6-26,79,63,48,51,38,20,87,44,15,0.00,40.00,22,11,36,0.00
2012-6-27,72,56,36,34,30,26,83,43,18,0.00,40.00,11,6,18,0.00
2012-6-28,83,61,35,43,35,30,89,45,15,0.00,40.00,10,4,22,0.00
2012-6-29,84,64,43,46,42,28,81,48,13,0.00,40.00,13,6,25,0.00
2012-6-30,84,71,47,48,44,39,89,42,21,0.00,40.00,12,6,18,0.00
2012-7-1,77,64,50,57,48,44,87,59,35,0.00,40.00,12,6,24,0.00
2012-7-2,83,65,46,51,48,45,98,61,27,0.00,40.00,9,4,15,0.00
2012-7-3,75,63,49,50,44,35,91,55,30,0.00,40.00,22,10,35,0.00
2012-7-4,77,59,37,37,33,26,84,42,16,0.00,40.00,12,6,18,0.00
2012-7-5,79,61,45,44,38,32,82,47,19,0.00,40.00,7,3,13,0.00
2012-7-6,83,66,44,47,42,31,88,47,16,0.00,40.00,14,4,26,0.00
2012-7-7,86,69,52,52,46,34,80,47,18,0.00,40.00,12,5,23,0.00
2012-7-8,90,70,49,50,43,30,89,48,12,0.00,40.00,7,5,14,0.00
2012-7-9,91,70,49,51,42,22,81,44,8,0.00,40.00,16,5,28,0.00
2012-7-10,88,70,55,53,45,36,77,45,18,0.00,40.00,13,6,20,0.00
2012-7-11,86,65,49,53,46,42,84,54,22,0.00,40.00,11,5,21,0.00
2012-7-12,93,70,46,51,43,32,92,48,12,0.00,40.00,9,4,17,0.00
2012-7-13,84,71,52,57,47,38,79,47,22,0.00,40.00,12,5,21,0.00
2012-7-14,82,69,59,58,56,51,96,68,36,0.00,40.00,12,6,20,0.00
2012-7-15,79,66,58,59,53,46,98,68,32,0.00,40.00,17,8,27,0.00
2012-7-16,77,62,47,58,52,47,97,71,40,0.00,40.00,12,4,21,0.00
2012-7-17,83,67,54,58,53,42,99,67,27,0.00,40.00,18,7,38,0.00
2012-7-18,90,69,48,72,51,44,94,61,21,0.00,40.00,50,10,50,0.00
2012-7-19,90,73,53,59,44,31,81,41,12,0.00,40.00,89,-18,89,0.01
2012-7-20,88,72,58,52,48,41,74,46,20,0.00,40.00,20,8,33,0.00
2012-7-21,86,71,54,53,49,37,90,51,18,0.00,40.00,15,8,25,0.00
2012-7-22,91,69,49,51,46,38,84,48,17,0.00,40.00,30,6,46,0.01
2012-7-23,83,73,61,51,42,22,68,36,14,0.00,40.00,19,12,31,0.01
2012-7-24,82,64,40,38,31,22,77,33,15,0.00,40.00,14,6,28,0.01
2012-7-25,81,64,41,39,35,30,87,41,16,0.00,40.00,10,5,16,0.01
2012-7-26,84,67,45,49,43,36,87,46,20,0.00,40.00,16,6,31,0.00
2012-7-27,82,63,50,58,50,46,89,65,33,0.00,40.00,13,6,28,0.13
2012-7-28,83,66,49,54,50,44,94,62,28,0.00,40.00,17,7,25,0.03
2012-7-29,89,69,48,51,43,34,90,46,16,0.00,40.00,13,5,21,0.00
2012-7-30,92,70,48,48,42,31,81,43,12,0.00,40.00,10,5,23,0.02
2012-7-31,87,71,49,48,42,32,86,39,18,0.00,40.00,12,6,17,0.01
2012-8-1,84,68,46,42,35,30,75,34,15,0.00,40.00,10,6,17,0.01
2012-8-2,79,64,44,40,34,20,79,38,11,0.00,40.00,20,8,37,0.01
2012-8-3,72,62,48,45,37,27,84,44,19,0.00,40.00,20,10,39,0.04
2012-8-4,82,61,38,40,33,24,86,44,12,0.00,40.00,8,4,11,0.03
2012-8-5,91,68,45,40,36,32,74,38,13,0.00,40.00,10,4,14,0.01
2012-8-6,81,65,49,49,42,35,77,46,24,0.00,40.00,9,4,15,0.00
2012-8-7,90,68,48,46,41,32,83,47,14,0.00,40.00,8,4,16,0.01
2012-8-8,89,69,48,51,45,41,80,48,24,0.00,40.00,24,8,37,0.01
2012-8-9,89,70,50,50,45,36,86,49,16,0.00,40.00,9,5,14,0.00
2012-8-10,78,65,54,56,52,43,91,63,40,0.00,40.00,11,6,23,0.18
2012-8-11,83,68,51,52,41,-100,90,47,15,0.00,40.00,8,4,16,0.02
2012-8-12,87,66,44,48,41,32,91,49,14,0.00,40.00,9,4,13,0.02
2012-8-13,88,67,45,44,35,23,79,41,11,0.00,40.00,11,5,18,0.00
2012-8-14,89,68,47,39,34,27,64,34,11,0.00,40.00,16,6,31,0.02
2012-8-15,65,57,50,46,43,39,71,60,38,0.00,40.00,18,12,34,0.01
2012-8-16,79,58,37,44,39,30,95,58,21,0.00,40.00,9,4,17,0.01
2012-8-17,85,63,41,39,33,17,75,41,8,0.00,40.00,14,5,20,0.00
2012-8-18,87,65,39,39,32,24,85,38,10,0.00,40.00,10,4,14,0.01
2012-8-19,86,65,45,52,36,28,73,40,13,0.00,40.00,8,4,10,0.03
2012-8-20,85,67,48,47,39,34,71,41,16,0.00,40.00,10,4,16,0.00
2012-8-21,89,66,47,56,45,38,93,53,17,0.00,40.00,23,8,35,0.13
2012-8-22,80,65,48,56,47,32,95,60,22,0.00,40.00,11,6,20,0.15
2012-8-23,83,62,41,41,36,28,88,47,14,0.00,40.00,13,5,23,0.03
2012-8-24,71,58,40,36,26,12,83,35,10,0.00,40.00,14,8,26,0.01
2012-8-25,76,54,29,30,24,18,85,40,11,0.00,40.00,8,4,14,0.00
2012-8-26,87,60,36,44,32,24,72,42,12,0.00,40.00,17,6,30,0.01
2012-8-27,89,72,56,55,45,39,75,41,18,0.00,40.00,17,10,29,0.04
2012-8-28,93,69,47,55,41,22,97,52,8,0.00,40.00,17,5,27,0.03
2012-8-29,75,62,44,41,36,32,75,41,23,0.00,40.00,17,8,26,0.01
2012-8-30,79,59,38,38,32,25,81,42,14,0.00,40.00,8,4,14,0.01
2012-8-31,88,62,38,42,31,27,73,38,11,0.00,40.00,15,6,31,0.00
2012-9-1,79,67,50,51,38,14,83,41,13,0.00,40.00,18,10,32,0.02
2012-9-2,77,56,31,27,20,8,66,29,7,0.00,40.00,13,4,21,0.00
2012-9-3,74,56,34,26,21,14,68,29,13,0.00,40.00,9,5,16,0.02
2012-9-4,73,55,34,31,27,21,75,38,19,0.00,40.00,14,5,26,0.02
2012-9-5,75,55,35,33,29,27,73,43,17,0.00,40.00,14,5,22,0.02
2012-9-6,65,57,49,40,37,29,62,47,34,0.00,40.00,16,10,23,0.01
2012-9-7,75,52,33,39,35,30,93,59,21,0.00,40.00,8,4,12,0.01
2012-9-8,84,58,34,36,28,19,81,42,10,0.00,40.00,16,5,23,0.02
2012-9-9,84,62,39,37,31,28,64,36,13,0.00,40.00,22,10,34,0.01
2012-9-10,75,57,40,36,30,17,75,42,11,0.00,40.00,18,8,31,0.00
2012-9-11,60,49,38,32,22,13,70,39,16,0.00,40.00,14,7,23,0.00
2012-9-12,63,46,29,24,19,12,75,39,18,0.00,40.00,7,4,13,0.00
2012-9-13,76,50,30,31,22,19,75,41,13,0.00,40.00,9,4,14,0.01
2012-9-14,79,54,34,32,24,13,63,38,8,0.00,40.00,11,4,16,0.01
2012-9-15,77,56,38,36,25,18,61,34,13,0.00,40.00,11,4,16,0.02
2012-9-16,68,56,44,37,33,28,60,43,24,0.00,40.00,11,5,18,0.01
2012-9-17,74,52,32,36,29,24,86,49,16,0.00,40.00,13,5,23,0.01
2012-9-18,79,55,36,33,28,25,75,42,14,0.00,40.00,13,4,19,0.01
2012-9-19,79,57,36,33,28,22,78,39,12,0.00,40.00,15,5,22,0.02
2012-9-20,79,57,35,31,26,23,73,35,14,0.00,40.00,12,4,18,0.01
2012-9-21,81,57,35,35,29,23,70,39,14,0.00,40.00,9,3,13,0.00
2012-9-22,81,57,36,37,29,-100,77,43,13,0.00,40.00,9,4,12,0.01
2012-9-23,75,57,40,37,31,27,70,42,19,0.00,40.00,8,4,14,0.00
2012-9-24,75,57,40,38,35,30,75,48,24,0.00,40.00,11,4,17,0.01
2012-9-25,68,52,37,43,37,33,89,61,35,0.00,40.00,7,3,12,0.03
2012-9-26,72,52,35,39,36,31,86,58,27,0.00,40.00,11,4,18,0.01
2012-9-27,73,52,34,39,35,31,87,57,25,0.00,40.00,9,3,14,0.02
2012-9-28,75,55,35,37,33,27,86,51,18,0.00,40.00,9,4,18,0.02
2012-9-29,73,60,51,45,40,34,76,49,27,0.00,40.00,8,5,15,0.01
2012-9-30,70,55,42,40,35,30,84,51,24,0.00,40.00,15,5,25,0.01
2012-10-1,71,52,32,34,30,26,86,49,20,0.00,40.00,15,4,27,0.01
2012-10-2,71,63,49,36,27,9,44,28,10,0.00,40.00,18,12,41,0.01
2012-10-3,49,37,29,32,28,20,99,73,33,0.00,40.00,19,9,32,0.13
2012-10-4,41,32,20,26,24,18,92,75,54,0.00,40.00,12,5,18,0.07
2012-10-5,43,33,20,25,21,15,91,63,33,0.00,40.00,14,6,23,0.00
2012-10-6,49,30,15,26,16,11,85,61,26,0.00,40.00,11,4,15,0.01
2012-10-7,59,36,19,28,22,15,88,63,25,0.00,40.00,11,4,18,0.01
2012-10-8,54,40,25,34,26,22,87,62,31,0.00,40.00,16,5,24,0.00
2012-10-9,55,42,32,30,28,26,82,59,35,0.00,40.00,16,5,24,0.00
2012-10-10,64,42,24,35,27,22,90,62,23,0.00,40.00,18,6,25,0.00
2012-10-11,60,42,27,35,32,25,95,70,37,0.00,40.00,18,5,26,0.01
2012-10-12,71,47,25,32,23,12,91,54,11,0.00,40.00,11,5,27,0.00
2012-10-13,54,49,43,44,35,20,95,62,29,0.00,40.00,11,4,19,0.02
2012-10-14,65,53,38,40,35,28,95,57,25,0.00,40.00,20,8,27,0.01
2012-10-15,59,51,43,44,38,31,84,63,44,0.00,40.00,19,8,31,0.01
2012-10-16,56,50,41,46,32,16,87,53,25,0.00,40.00,24,14,41,0.11
2012-10-17,48,39,28,20,17,12,70,42,24,0.00,40.00,12,6,23,0.01
2012-10-18,55,35,20,27,21,16,88,63,26,0.00,40.00,8,4,12,0.01
2012-10-19,61,51,32,41,32,26,80,49,34,0.00,40.00,20,13,32,0.00
2012-10-20,53,44,33,42,31,19,87,61,34,0.00,40.00,20,10,31,0.01
2012-10-21,45,32,15,22,17,12,85,58,28,0.00,40.00,8,4,12,0.01
2012-10-22,38,28,18,34,23,15,98,81,49,0.00,40.00,8,4,20,0.09
2012-10-23,34,29,22,30,27,20,99,93,83,0.00,40.00,11,4,16,0.09
2012-10-24,38,28,18,28,23,16,98,83,45,0.00,40.00,7,3,10,0.03
2012-10-25,31,26,22,26,21,18,95,81,66,0.00,40.00,9,6,13,0.01
2012-10-26,39,28,16,24,20,13,92,73,39,0.00,40.00,18,7,26,0.01
2012-10-27,46,36,29,32,28,23,98,76,42,0.00,40.00,13,6,18,0.06
2012-10-28,57,48,38,38,35,31,83,63,40,0.00,40.00,22,14,35,0.05
2012-10-29,57,50,45,41,38,33,74,62,46,0.00,40.00,17,12,30,0.01
2012-10-30,63,49,38,37,34,31,82,58,32,0.00,40.00,22,11,34,0.01
2012-10-31,69,51,45,34,32,25,66,51,19,0.00,40.00,17,10,25,0.01
2012-11-1,56,47,35,40,33,26,93,61,33,0.00,40.00,13,5,25,0.04
2012-11-2,47,39,28,38,36,26,98,89,65,0.00,40.00,5,3,9,0.01
2012-11-3,49,36,25,34,28,23,93,75,48,0.00,40.00,8,3,13,0.01
2012-11-4,52,46,41,40,38,33,90,75,60,0.00,40.00,6,4,11,0.01
2012-11-5,65,52,39,39,36,32,93,57,30,0.00,40.00,20,10,33,0.00
2012-11-6,65,45,29,38,32,27,94,66,32,0.00,40.00,20,8,29,0.01
2012-11-7,62,46,30,38,29,22,72,53,31,0.00,40.00,22,12,35,0.01
2012-11-8,31,27,23,27,23,19,96,86,72,0.00,40.00,16,8,23,0.20
2012-11-9,25,18,10,23,13,5,94,80,68,0.00,40.00,21,15,28,0.15
2012-11-10,13,6,-5,5,-2,-11,79,69,58,0.00,40.00,17,8,22,0.01
2012-11-11,22,10,3,12,4,-2,82,75,63,0.00,40.00,10,5,13,0.01
2012-11-12,31,16,2,23,10,-2,83,76,64,0.00,40.00,12,4,23,0.01
2012-11-13,38,32,26,27,25,21,85,74,59,0.00,40.00,18,8,23,0.00
2012-11-14,38,33,27,33,27,-100,94,81,68,0.00,40.00,18,6,27,0.00
2012-11-15,38,28,15,26,21,12,95,75,59,0.00,40.00,18,9,25,0.01
2012-11-16,42,36,31,34,26,18,83,69,60,0.00,40.00,17,9,22,0.00
2012-11-17,45,38,33,33,30,26,82,71,56,0.00,40.00,18,11,28,0.00
2012-11-18,42,37,28,33,28,19,95,71,44,0.00,40.00,15,8,21,0.00
2012-11-19,50,40,29,29,23,14,63,51,39,0.00,40.00,24,14,38,0.00
2012-11-20,53,49,45,34,31,29,63,51,43,0.00,40.00,25,17,37,0.00
2012-11-21,46,37,32,37,30,15,99,77,46,0.00,40.00,20,10,32,0.28
2012-11-22,36,30,20,24,19,14,88,66,41,0.00,40.00,20,6,31,0.01
2012-11-23,45,28,18,24,20,14,88,72,41,0.00,40.00,14,5,21,0.00
2012-11-24,43,38,30,35,30,20,96,73,42,0.00,40.00,19,10,29,0.01
2012-11-25,33,30,21,31,22,16,94,73,53,0.00,40.00,18,9,29,0.02
2012-11-26,21,16,13,17,10,8,83,79,68,0.00,40.00,8,5,11,0.01
2012-11-27,30,20,8,19,13,4,86,78,57,0.00,40.00,4,2,5,0.00
2012-11-28,38,26,17,24,20,14,89,78,55,0.00,40.00,6,3,8,0.00
2012-11-29,49,41,29,31,27,23,81,59,38,0.00,40.00,21,10,34,0.01
2012-11-30,47,42,35,39,32,27,90,67,47,0.00,40.00,20,13,32,0.02
2012-12-1,46,38,31,35,32,29,96,81,61,0.00,40.00,27,10,39,0.03
2012-12-2,47,40,34,38,32,19,91,74,51,0.00,40.00,21,14,32,0.10
2012-12-3,40,35,31,25,22,19,74,59,44,0.00,40.00,23,13,36,0.01
2012-12-4,45,39,28,36,28,20,79,64,51,0.00,40.00,26,17,38,0.03
2012-12-5,46,40,28,35,28,18,74,62,42,0.00,40.00,23,15,37,0.01
2012-12-6,31,26,21,25,18,-100,96,76,59,0.00,40.00,10,4,14,0.01
2012-12-7,35,28,20,25,20,17,94,74,51,0.00,40.00,16,9,30,0.01
2012-12-8,29,25,21,24,9,0,91,52,29,0.00,40.00,24,11,39,0.00
2012-12-9,24,12,1,14,3,-4,86,68,36,0.00,40.00,18,6,26,0.01
2012-12-10,33,28,18,24,21,14,90,74,45,0.00,40.00,15,7,27,0.01
2012-12-11,39,30,24,26,23,20,93,76,46,0.00,40.00,14,5,23,0.00
2012-12-12,33,29,22,32,26,20,100,91,81,0.00,40.00,8,3,13,0.08
2012-12-13,28,18,3,24,14,-1,95,84,68,0.00,40.00,6,3,12,0.01
2012-12-14,19,11,2,15,7,-2,89,84,82,0.00,40.00,5,3,8,0.01
2012-12-15,28,15,8,19,11,4,89,82,67,0.00,40.00,12,3,18,0.01
2012-12-16,30,24,21,18,14,10,80,64,45,0.00,40.00,17,13,26,0.00
2012-12-17,36,30,25,29,19,9,96,64,39,0.00,40.00,19,14,38,0.03
2012-12-18,29,20,6,10,5,-2,70,54,33,0.00,40.00,19,7,30,0.01
2012-12-19,24,17,7,7,4,-1,69,57,47,0.00,40.00,23,14,33,0.01
2012-12-20,33,26,19,14,10,6,58,51,45,0.00,40.00,21,14,30,0.01
2012-12-21,42,32,26,16,12,9,56,42,27,0.00,40.00,13,10,19,0.01
2012-12-22,42,32,24,15,12,11,59,45,30,0.00,40.00,20,11,28,0.01
2012-12-23,36,29,20,26,16,10,97,62,36,0.00,40.00,16,9,23,0.01
2012-12-24,28,17,0,19,10,-4,87,77,66,0.00,40.00,12,6,15,0.03
2012-12-25,24,12,4,13,6,-2,83,75,61,0.00,40.00,14,4,18,0.01
2012-12-26,24,20,16,17,15,13,90,81,63,0.00,40.00,8,3,12,0.01
2012-12-27,28,21,17,20,18,14,93,87,71,0.00,40.00,6,2,7,0.03
2012-12-28,31,21,6,21,16,1,94,82,60,0.00,40.00,6,4,10,0.02
2012-12-29,17,10,0,10,5,-3,85,80,72,0.00,40.00,7,3,10,0.00
2012-12-30,20,12,3,13,8,-1,86,82,73,0.00,40.00,6,3,9,0.02
2012-12-31,21,15,6,14,9,1,84,78,64,0.00,40.00,5,2,7,0.01
2013-1-1,20,11,1,14,6,-3,84,79,68,0.00,40.00,7,4,12,0.01